createdAt,value
2017-10-07T00:00:32.214Z,9.50
2017-10-07T00:03:00.399Z,8.00
2017-10-07T00:05:28.554Z,12.53
2017-10-07T00:07:56.692Z,12.60
2017-10-07T00:10:24.806Z,9.40
2017-10-07T00:12:52.970Z,9.00
2017-10-07T00:15:21.093Z,10.10
2017-10-07T00:17:49.338Z,7.50
2017-10-07T00:20:17.449Z,9.40
2017-10-07T00:22:45.568Z,11.63
2017-10-07T00:25:13.708Z,11.50
2017-10-07T00:27:42.589Z,11.07
2017-10-07T00:30:11.501Z,11.13
2017-10-07T00:32:39.635Z,8.57
2017-10-07T00:35:08.651Z,9.83
2017-10-07T00:37:37.519Z,6.63
2017-10-07T00:40:05.668Z,10.10
2017-10-07T00:42:33.808Z,12.23
2017-10-07T00:45:01.923Z,10.83
2017-10-07T00:47:30.050Z,7.00
2017-10-07T00:49:58.275Z,8.77
2017-10-07T00:52:26.397Z,12.03
2017-10-07T00:54:54.521Z,10.60
2017-10-07T00:57:22.775Z,9.93
2017-10-07T00:59:50.894Z,11.60
2017-10-07T01:02:19.009Z,10.53
2017-10-07T01:04:47.179Z,11.40
2017-10-07T01:07:15.297Z,11.33
2017-10-07T01:09:44.181Z,14.93
2017-10-07T01:12:13.093Z,8.77
2017-10-07T01:14:41.232Z,12.20
2017-10-07T01:17:10.110Z,9.13
2017-10-07T01:19:38.262Z,7.80
2017-10-07T01:22:06.368Z,9.63
2017-10-07T01:24:35.262Z,11.30
2017-10-07T01:27:04.288Z,14.70
2017-10-07T01:29:32.408Z,8.63
2017-10-07T01:32:00.645Z,14.27
2017-10-07T01:34:28.820Z,13.07
2017-10-07T01:36:56.965Z,9.50
2017-10-07T01:39:25.343Z,12.67
2017-10-07T01:41:53.450Z,7.67
2017-10-07T01:44:21.585Z,16.87
2017-10-07T01:46:50.804Z,11.47
2017-10-07T01:49:18.907Z,10.43
2017-10-07T01:51:47.033Z,16.53
2017-10-07T01:54:15.188Z,16.03
2017-10-07T01:56:43.315Z,14.10
2017-10-07T01:59:11.440Z,15.30
2017-10-07T02:01:39.694Z,13.30
2017-10-07T02:04:08.581Z,10.80
2017-10-07T02:06:37.465Z,11.57
2017-10-07T02:09:06.413Z,8.73
2017-10-07T02:11:34.570Z,10.20
2017-10-07T02:14:02.720Z,12.30
2017-10-07T02:16:30.830Z,13.47
2017-10-07T02:18:59.165Z,14.27
2017-10-07T02:21:27.986Z,14.43
2017-10-07T02:23:56.110Z,10.07
2017-10-07T02:26:25.017Z,9.43
2017-10-07T02:28:53.144Z,11.13
2017-10-07T02:31:21.272Z,17.00
2017-10-07T02:33:49.393Z,10.53
2017-10-07T02:36:18.510Z,16.13
2017-10-07T02:38:47.389Z,9.03
2017-10-07T02:41:16.262Z,8.97
2017-10-07T02:43:44.512Z,8.07
2017-10-07T02:46:12.616Z,10.30
2017-10-07T02:48:41.487Z,9.77
2017-10-07T02:51:09.632Z,16.07
2017-10-07T02:53:37.739Z,17.57
2017-10-07T02:56:05.888Z,11.00
2017-10-07T02:58:34.001Z,11.20
2017-10-07T03:01:03.013Z,12.17
2017-10-07T03:03:31.132Z,7.27
2017-10-07T03:05:59.263Z,16.53
2017-10-07T03:08:27.395Z,17.70
2017-10-07T03:10:56.276Z,14.00
2017-10-07T03:13:24.441Z,7.30
2017-10-07T03:15:52.557Z,14.10
2017-10-07T03:18:20.697Z,9.87
2017-10-07T03:20:49.577Z,8.00
2017-10-07T03:23:18.566Z,10.03
2017-10-07T03:25:46.685Z,12.73
2017-10-07T03:28:14.801Z,13.23
2017-10-07T03:30:43.215Z,12.87
2017-10-07T03:33:11.325Z,9.67
2017-10-07T03:35:39.442Z,13.30
2017-10-07T03:38:08.366Z,12.57
2017-10-07T03:40:36.508Z,11.23
2017-10-07T03:43:05.426Z,14.97
2017-10-07T03:45:33.552Z,15.23
2017-10-07T03:48:02.590Z,12.70
2017-10-07T03:50:30.718Z,11.30
2017-10-07T03:52:59.587Z,19.07
2017-10-07T03:55:27.833Z,16.73
2017-10-07T03:57:55.962Z,12.03
2017-10-07T04:00:24.840Z,14.37
2017-10-07T04:02:53.861Z,11.43
2017-10-07T04:05:22.031Z,12.67
2017-10-07T04:07:50.153Z,15.70
2017-10-07T04:10:18.302Z,15.93
2017-10-07T04:12:46.410Z,14.43
2017-10-07T04:15:14.674Z,14.20
2017-10-07T04:17:42.792Z,10.73
2017-10-07T04:20:10.909Z,12.93
2017-10-07T04:22:39.226Z,15.97
2017-10-07T04:25:08.104Z,9.03
2017-10-07T04:27:36.970Z,15.93
2017-10-07T04:30:05.129Z,15.50
2017-10-07T04:32:33.240Z,9.97
2017-10-07T04:35:02.264Z,14.23
2017-10-07T04:37:30.384Z,20.10
2017-10-07T04:39:58.518Z,12.30
2017-10-07T04:42:26.678Z,12.80
2017-10-07T04:44:54.812Z,15.13
2017-10-07T04:47:23.696Z,18.40
2017-10-07T04:49:52.723Z,12.97
2017-10-07T04:52:20.900Z,14.03
2017-10-07T04:54:49.006Z,11.60
2017-10-07T04:57:17.275Z,10.93
2017-10-07T04:59:45.396Z,13.00
2017-10-07T05:02:13.533Z,12.30
2017-10-07T05:04:41.668Z,15.23
2017-10-07T05:07:09.793Z,16.80
2017-10-07T05:09:38.912Z,15.20
2017-10-07T05:12:07.029Z,11.73
2017-10-07T05:14:35.163Z,6.53
2017-10-07T05:17:03.535Z,14.67
2017-10-07T05:19:31.657Z,10.00
2017-10-07T05:21:59.760Z,9.87
2017-10-07T05:24:28.665Z,13.57
2017-10-07T05:26:56.779Z,15.50
2017-10-07T05:29:24.934Z,11.43
2017-10-07T05:31:53.051Z,9.20
2017-10-07T05:34:22.148Z,7.00
2017-10-07T05:36:51.039Z,18.43
2017-10-07T05:39:19.929Z,14.23
2017-10-07T05:41:48.848Z,12.07
2017-10-07T05:44:16.960Z,15.23
2017-10-07T05:46:45.218Z,10.73
2017-10-07T05:49:13.346Z,8.40
2017-10-07T05:51:41.473Z,15.33
2017-10-07T05:54:09.596Z,9.90
2017-10-07T05:56:37.711Z,12.40
2017-10-07T05:59:05.956Z,16.93
2017-10-07T06:01:34.090Z,15.70
2017-10-07T06:04:02.974Z,10.17
2017-10-07T06:06:31.989Z,14.63
2017-10-07T06:09:00.110Z,10.60
2017-10-07T06:11:28.221Z,13.10
2017-10-07T06:13:56.600Z,11.53
2017-10-07T06:16:24.736Z,12.73
2017-10-07T06:18:52.877Z,10.80
2017-10-07T06:21:21.110Z,11.03
2017-10-07T06:23:49.991Z,14.20
2017-10-07T06:26:18.873Z,8.67
2017-10-07T06:28:47.774Z,9.20
2017-10-07T06:31:16.656Z,7.63
2017-10-07T06:33:45.594Z,12.73
2017-10-07T06:36:13.720Z,12.93
2017-10-07T06:38:42.606Z,12.50
2017-10-07T06:41:11.632Z,6.80
2017-10-07T06:43:39.752Z,13.80
2017-10-07T06:46:07.879Z,9.90
2017-10-07T06:48:36.015Z,12.00
2017-10-07T06:51:04.906Z,6.77
2017-10-07T06:53:33.829Z,6.83
2017-10-07T06:56:01.954Z,7.50
2017-10-07T06:58:30.845Z,16.50
2017-10-07T07:00:59.869Z,8.83
2017-10-07T07:03:28.003Z,13.30
2017-10-07T07:05:56.888Z,9.03
2017-10-07T07:08:25.808Z,10.33
2017-10-07T07:10:53.946Z,15.07
2017-10-07T07:13:22.096Z,13.87
2017-10-07T07:15:50.220Z,10.20
2017-10-07T07:18:18.377Z,7.90
2017-10-07T07:20:47.287Z,10.13
2017-10-07T07:23:15.406Z,7.70
2017-10-07T07:25:43.558Z,6.73
2017-10-07T07:28:12.236Z,6.30
2017-10-07T07:30:41.130Z,13.07
2017-10-07T07:33:09.275Z,9.23
2017-10-07T07:35:37.396Z,6.80
2017-10-07T07:38:05.557Z,10.20
2017-10-07T07:40:33.696Z,7.60
2017-10-07T07:43:01.858Z,7.73
2017-10-07T07:45:29.971Z,8.60
2017-10-07T07:47:58.116Z,9.23
2017-10-07T07:50:26.268Z,10.10
2017-10-07T07:52:54.400Z,7.60
2017-10-07T07:55:22.570Z,8.83
2017-10-07T07:57:50.687Z,6.07
2017-10-07T08:00:18.810Z,8.37
2017-10-07T08:02:47.754Z,6.77
2017-10-07T08:05:15.876Z,7.10
2017-10-07T08:07:44.191Z,6.23
2017-10-07T08:10:12.326Z,6.50
2017-10-07T08:12:40.460Z,6.20
2017-10-07T08:15:08.607Z,5.33
2017-10-07T08:17:36.729Z,4.93
2017-10-07T08:20:04.890Z,6.67
2017-10-07T08:22:33.224Z,4.97
2017-10-07T08:25:01.331Z,6.40
2017-10-07T08:27:29.461Z,6.50
2017-10-07T08:29:57.851Z,6.60
2017-10-07T08:32:25.966Z,7.63
2017-10-07T08:34:54.098Z,4.57
2017-10-07T08:37:22.471Z,4.27
2017-10-07T08:39:50.592Z,3.67
2017-10-07T08:42:18.708Z,7.17
2017-10-07T08:44:47.078Z,10.33
2017-10-07T08:47:15.220Z,5.20
2017-10-07T08:49:44.130Z,8.10
2017-10-07T08:52:13.038Z,9.27
2017-10-07T08:54:41.142Z,4.90
2017-10-07T08:57:09.389Z,5.63
2017-10-07T08:59:37.495Z,3.50
2017-10-07T09:02:05.612Z,3.50
2017-10-07T09:04:33.988Z,4.40
2017-10-07T09:07:02.105Z,4.13
2017-10-07T09:09:30.240Z,3.57
2017-10-07T09:11:58.387Z,3.13
2017-10-07T09:14:27.290Z,4.10
2017-10-07T09:16:55.418Z,4.30
2017-10-07T09:19:23.529Z,8.23
2017-10-07T09:21:51.665Z,4.73
2017-10-07T09:24:19.767Z,5.73
2017-10-07T09:26:48.868Z,2.93
2017-10-07T09:29:17.025Z,2.63
2017-10-07T09:31:45.917Z,3.93
2017-10-07T09:34:14.929Z,4.33
2017-10-07T09:36:43.047Z,3.90
2017-10-07T09:39:11.158Z,7.13
2017-10-07T09:41:39.407Z,3.37
2017-10-07T09:44:07.546Z,3.23
2017-10-07T09:46:35.675Z,7.00
2017-10-07T09:49:03.806Z,8.20
2017-10-07T09:51:31.939Z,3.70
2017-10-07T09:54:00.071Z,3.53
2017-10-07T09:56:28.971Z,5.53
2017-10-07T09:58:57.857Z,6.70
2017-10-07T10:01:26.780Z,2.10
2017-10-07T10:03:54.904Z,5.30
2017-10-07T10:06:23.928Z,2.10
2017-10-07T10:08:52.044Z,3.87
2017-10-07T10:11:20.927Z,2.60
2017-10-07T10:13:49.162Z,3.97
2017-10-07T10:16:17.289Z,6.97
2017-10-07T10:18:45.422Z,3.50
2017-10-07T10:21:13.659Z,3.70
2017-10-07T10:23:42.554Z,6.60
2017-10-07T10:26:10.684Z,2.70
2017-10-07T10:28:38.829Z,6.37
2017-10-07T10:31:06.948Z,3.20
2017-10-07T10:33:35.257Z,3.10
2017-10-07T10:36:03.377Z,3.47
2017-10-07T10:38:31.497Z,4.10
2017-10-07T10:40:59.628Z,4.43
2017-10-07T10:43:28.641Z,2.47
2017-10-07T10:45:57.655Z,6.30
2017-10-07T10:48:25.779Z,1.90
2017-10-07T10:50:53.902Z,1.73
2017-10-07T10:53:22.055Z,4.07
2017-10-07T10:55:50.181Z,2.67
2017-10-07T10:58:18.448Z,3.10
2017-10-07T11:00:46.557Z,5.23
2017-10-07T11:03:15.430Z,4.33
2017-10-07T11:05:43.563Z,3.20
2017-10-07T11:08:11.672Z,2.63
2017-10-07T11:10:39.942Z,2.63
2017-10-07T11:13:08.062Z,2.80
2017-10-07T11:15:36.167Z,4.23
2017-10-07T11:18:04.500Z,3.93
2017-10-07T11:20:32.612Z,4.97
2017-10-07T11:23:00.719Z,1.70
2017-10-07T11:25:29.849Z,3.73
2017-10-07T11:27:57.969Z,3.10
2017-10-07T11:30:26.102Z,6.27
2017-10-07T11:32:54.372Z,2.30
2017-10-07T11:35:23.312Z,2.30
2017-10-07T11:37:52.334Z,4.13
2017-10-07T11:40:20.463Z,2.30
2017-10-07T11:42:48.582Z,2.97
2017-10-07T11:45:16.738Z,4.40
2017-10-07T11:47:44.860Z,4.07
2017-10-07T11:50:13.211Z,1.90
2017-10-07T11:52:41.318Z,1.57
2017-10-07T11:55:09.423Z,2.37
2017-10-07T11:57:37.558Z,5.70
2017-10-07T12:00:05.680Z,1.40
2017-10-07T12:02:33.932Z,2.37
2017-10-07T12:05:02.821Z,1.00
2017-10-07T12:07:31.709Z,1.30
2017-10-07T12:10:00.621Z,3.70
2017-10-07T12:12:28.754Z,1.17
2017-10-07T12:14:56.908Z,1.20
2017-10-07T12:17:25.031Z,3.03
2017-10-07T12:19:53.185Z,1.83
2017-10-07T12:22:22.062Z,2.23
2017-10-07T12:24:50.318Z,4.13
2017-10-07T12:27:18.427Z,1.33
2017-10-07T12:29:46.568Z,2.63
2017-10-07T12:32:14.719Z,2.30
2017-10-07T12:34:42.832Z,1.57
2017-10-07T12:37:11.857Z,1.80
2017-10-07T12:39:39.979Z,2.40
2017-10-07T12:42:08.102Z,1.87
2017-10-07T12:44:36.244Z,2.63
2017-10-07T12:47:05.148Z,1.40
2017-10-07T12:49:33.300Z,1.20
2017-10-07T12:52:02.180Z,1.37
2017-10-07T12:54:31.089Z,1.57
2017-10-07T12:56:59.221Z,3.10
2017-10-07T12:59:27.360Z,3.23
2017-10-07T13:02:13.910Z,3.37
2017-10-07T13:04:59.317Z,6.63
2017-10-07T13:07:28.382Z,1.20
2017-10-07T13:10:17.245Z,3.53
2017-10-07T13:12:46.379Z,2.30
2017-10-07T13:15:14.520Z,3.07
2017-10-07T13:17:43.405Z,4.10
2017-10-07T13:20:12.714Z,1.10
2017-10-07T13:22:40.851Z,1.67
2017-10-07T13:25:08.994Z,1.20
2017-10-07T13:27:37.926Z,2.50
2017-10-07T13:30:06.141Z,1.40
2017-10-07T13:32:34.550Z,3.10
2017-10-07T13:37:39.549Z,1.80
2017-10-07T13:40:07.665Z,1.20
2017-10-07T13:42:35.779Z,1.47
2017-10-07T13:45:03.970Z,3.00
2017-10-07T13:47:32.104Z,1.10
2017-10-07T13:50:00.376Z,1.20
2017-10-07T13:52:28.504Z,1.60
2017-10-07T13:54:56.620Z,3.30
2017-10-07T13:57:24.764Z,4.23
2017-10-07T13:59:53.689Z,1.47
2017-10-07T14:02:22.061Z,1.30
2017-10-07T14:04:50.240Z,1.60
2017-10-07T14:07:18.372Z,1.20
2017-10-07T14:09:47.503Z,0.90
2017-10-07T14:12:15.631Z,1.77
2017-10-07T14:14:44.526Z,2.00
2017-10-07T14:17:13.452Z,2.80
2017-10-07T14:19:41.582Z,1.20
2017-10-07T14:22:10.490Z,1.07
2017-10-07T14:24:38.623Z,4.33
2017-10-07T14:27:06.826Z,1.30
2017-10-07T14:29:35.731Z,1.00
2017-10-07T14:32:04.111Z,1.50
2017-10-07T14:34:32.243Z,1.70
2017-10-07T14:37:01.136Z,2.70
2017-10-07T14:39:30.155Z,1.00
2017-10-07T14:41:58.284Z,1.27
2017-10-07T14:44:26.422Z,5.07
2017-10-07T14:46:54.581Z,1.50
2017-10-07T14:49:22.708Z,3.00
2017-10-07T14:51:51.633Z,2.10
2017-10-07T14:54:19.774Z,1.50
2017-10-07T14:56:48.672Z,2.27
2017-10-07T14:59:18.065Z,1.00
2017-10-07T15:01:46.976Z,1.63
2017-10-07T15:04:15.109Z,1.20
2017-10-07T15:06:43.253Z,1.10
2017-10-07T15:09:11.384Z,1.23
2017-10-07T15:11:39.531Z,1.90
2017-10-07T15:14:08.443Z,1.43
2017-10-07T15:16:37.582Z,6.13
2017-10-07T15:19:05.713Z,1.20
2017-10-07T15:21:33.833Z,1.03
2017-10-07T15:24:01.995Z,3.00
2017-10-07T15:26:30.133Z,2.10
2017-10-07T15:28:58.288Z,1.43
2017-10-07T15:31:27.180Z,7.40
2017-10-07T15:33:56.076Z,1.00
2017-10-07T15:36:24.323Z,3.70
2017-10-07T15:38:52.453Z,0.87
2017-10-07T15:41:20.595Z,1.47
2017-10-07T15:43:49.533Z,1.40
2017-10-07T15:46:17.678Z,1.63
2017-10-07T15:48:45.828Z,1.37
2017-10-07T15:51:14.006Z,1.43
2017-10-07T15:53:42.258Z,1.30
2017-10-07T15:56:11.162Z,1.13
2017-10-07T15:58:39.293Z,5.23
2017-10-07T16:01:07.448Z,1.37
2017-10-07T16:03:35.579Z,1.70
2017-10-07T16:06:03.741Z,6.10
2017-10-07T16:08:32.623Z,1.73
2017-10-07T16:11:01.554Z,1.50
2017-10-07T16:13:29.699Z,1.70
2017-10-07T16:15:57.943Z,1.50
2017-10-07T16:18:26.084Z,1.40
2017-10-07T16:20:54.310Z,1.43
2017-10-07T16:23:22.475Z,1.47
2017-10-07T16:25:51.364Z,1.77
2017-10-07T16:28:20.302Z,2.07
2017-10-07T16:30:48.459Z,4.10
2017-10-07T16:33:16.579Z,1.60
2017-10-07T16:35:44.748Z,1.73
2017-10-07T16:38:12.863Z,3.50
2017-10-07T16:40:41.018Z,1.80
2017-10-07T16:43:09.146Z,1.30
2017-10-07T16:45:38.104Z,1.50
2017-10-07T16:48:06.226Z,1.70
2017-10-07T16:50:34.485Z,1.77
2017-10-07T16:53:02.625Z,2.40
2017-10-07T16:55:30.745Z,2.00
2017-10-07T16:57:58.911Z,1.67
2017-10-07T17:00:27.038Z,2.40
2017-10-07T17:02:55.293Z,1.47
2017-10-07T17:05:23.441Z,1.80
2017-10-07T17:07:52.341Z,1.77
2017-10-07T17:10:21.278Z,1.80
2017-10-07T17:12:49.391Z,1.60
2017-10-07T17:15:18.324Z,1.70
2017-10-07T17:17:46.466Z,2.03
2017-10-07T17:20:15.422Z,3.47
2017-10-07T17:22:43.554Z,2.60
2017-10-07T17:25:11.673Z,1.57
2017-10-07T17:27:39.826Z,4.37
2017-10-07T17:30:07.960Z,2.40
2017-10-07T17:32:36.214Z,3.70
2017-10-07T17:35:05.105Z,1.97
2017-10-07T17:37:33.243Z,6.13
2017-10-07T17:40:01.398Z,1.97
2017-10-07T17:42:29.557Z,3.10
2017-10-07T17:44:57.790Z,2.73
2017-10-07T17:47:26.687Z,4.83
2017-10-07T17:49:54.834Z,2.67
2017-10-07T17:52:22.976Z,2.27
2017-10-07T17:54:52.002Z,2.83
2017-10-07T17:57:20.904Z,2.27
2017-10-07T17:59:49.794Z,3.00
2017-10-07T18:02:18.837Z,2.20
2017-10-07T18:04:46.961Z,12.50
2017-10-07T18:07:15.088Z,1.60
2017-10-07T18:09:43.296Z,2.20
2017-10-07T18:12:12.247Z,2.50
2017-10-07T18:14:40.425Z,1.80
2017-10-07T18:17:08.604Z,1.30
2017-10-07T18:19:38.336Z,6.13
2017-10-07T18:22:06.705Z,1.63
2017-10-07T18:24:35.108Z,4.60
2017-10-07T18:27:04.333Z,2.13
2017-10-07T18:29:33.210Z,2.63
2017-10-07T18:32:02.248Z,3.47
2017-10-07T18:34:31.228Z,2.37
2017-10-07T18:37:00.291Z,1.87
2017-10-07T18:39:28.788Z,7.07
2017-10-07T18:41:58.010Z,3.80
2017-10-07T18:44:26.906Z,1.80
2017-10-07T18:46:55.876Z,3.03
2017-10-07T18:49:24.764Z,1.93
2017-10-07T18:51:54.170Z,2.20
2017-10-07T18:54:23.428Z,1.30
2017-10-07T18:56:53.373Z,2.40
2017-10-07T18:59:22.583Z,2.00
2017-10-07T19:01:51.746Z,2.10
2017-10-07T19:04:21.344Z,1.50
2017-10-07T19:06:51.350Z,2.53
2017-10-07T19:09:20.897Z,1.77
2017-10-07T19:11:50.176Z,1.80
2017-10-07T19:14:19.478Z,1.57
2017-10-07T19:16:48.979Z,2.00
2017-10-07T19:19:18.241Z,2.70
2017-10-07T19:21:48.386Z,2.10
2017-10-07T19:24:17.612Z,6.30
2017-10-07T19:26:46.984Z,2.57
2017-10-07T19:29:16.228Z,1.70
2017-10-07T19:31:45.774Z,2.60
2017-10-07T19:34:15.042Z,1.43
2017-10-07T19:36:44.342Z,1.87
2017-10-07T19:39:15.556Z,1.40
2017-10-07T19:41:44.836Z,2.43
2017-10-07T19:44:14.329Z,2.40
2017-10-07T19:46:43.522Z,1.80
2017-10-07T19:49:12.782Z,2.63
2017-10-07T19:51:43.102Z,2.33
2017-10-07T19:54:12.331Z,2.13
2017-10-07T19:56:42.553Z,2.23
2017-10-07T19:59:11.836Z,1.70
2017-10-07T20:01:42.155Z,2.83
2017-10-07T20:04:12.183Z,3.63
2017-10-07T20:06:42.539Z,1.43
2017-10-07T20:09:11.992Z,3.00
2017-10-07T20:11:42.305Z,1.60
2017-10-07T20:14:11.551Z,1.63
2017-10-07T20:16:41.764Z,1.40
2017-10-07T20:19:11.392Z,1.70
2017-10-07T20:21:40.610Z,1.33
2017-10-07T20:24:09.885Z,1.67
2017-10-07T20:26:39.524Z,3.10
2017-10-07T20:29:08.743Z,3.60
2017-10-07T20:31:39.182Z,1.63
2017-10-07T20:34:08.522Z,1.70
2017-10-07T20:36:37.758Z,2.03
2017-10-07T20:39:08.099Z,1.83
2017-10-07T20:41:38.130Z,2.33
2017-10-07T20:44:07.711Z,1.20
2017-10-07T20:46:36.836Z,2.07
2017-10-07T20:49:05.886Z,1.87
2017-10-07T20:51:34.942Z,1.93
2017-10-07T20:54:04.067Z,1.60
2017-10-07T20:56:33.070Z,2.43
2017-10-07T20:59:02.431Z,1.30
2017-10-07T21:01:31.438Z,1.60
2017-10-07T21:04:00.212Z,1.20
2017-10-07T21:06:28.850Z,1.53
2017-10-07T21:08:57.261Z,1.20
2017-10-07T21:11:26.679Z,1.50
2017-10-07T21:13:55.615Z,1.37
2017-10-07T21:16:23.759Z,1.67
2017-10-07T21:18:52.046Z,1.37
2017-10-07T21:21:20.177Z,2.37
2017-10-07T21:23:48.603Z,1.60
2017-10-07T21:26:16.752Z,1.30
2017-10-07T21:28:45.642Z,2.97
2017-10-07T21:31:13.820Z,1.30
2017-10-07T21:33:41.981Z,1.10
2017-10-07T21:36:10.866Z,1.60
2017-10-07T21:38:39.799Z,1.97
2017-10-07T21:41:07.934Z,1.00
2017-10-07T21:43:36.831Z,1.47
2017-10-07T21:46:04.973Z,1.30
2017-10-07T21:48:33.866Z,1.57
2017-10-07T21:51:02.394Z,1.40
2017-10-07T21:53:30.523Z,1.43
2017-10-07T21:55:59.403Z,1.73
2017-10-07T21:58:27.578Z,1.40
2017-10-07T22:00:57.616Z,3.00
2017-10-07T22:03:25.730Z,5.40
2017-10-07T22:05:53.987Z,1.50
2017-10-07T22:08:22.126Z,1.20
2017-10-07T22:10:51.011Z,1.73
2017-10-07T22:13:19.929Z,1.97
2017-10-07T22:15:48.076Z,1.00
2017-10-07T22:18:17.113Z,1.50
2017-10-07T22:20:45.792Z,1.40
2017-10-07T22:23:13.921Z,2.77
2017-10-07T22:25:42.846Z,1.50
2017-10-07T22:28:10.998Z,3.80
2017-10-07T22:30:39.265Z,1.90
2017-10-07T22:33:08.070Z,1.37
2017-10-07T22:35:36.209Z,1.70
2017-10-07T22:38:05.140Z,4.40
2017-10-07T22:40:33.267Z,4.87
2017-10-07T22:43:02.288Z,3.77
2017-10-07T22:45:30.430Z,2.90
2017-10-07T22:47:59.313Z,1.57
2017-10-07T22:50:27.472Z,5.23
2017-10-07T22:52:55.605Z,1.97
2017-10-07T22:55:24.280Z,3.53
2017-10-07T22:57:52.425Z,2.27
2017-10-07T23:00:21.322Z,2.10
2017-10-07T23:02:50.234Z,2.70
2017-10-07T23:05:18.368Z,1.20
2017-10-07T23:07:47.451Z,1.67
2017-10-07T23:10:15.564Z,2.20
2017-10-07T23:12:43.893Z,2.20
2017-10-07T23:15:12.029Z,5.00
2017-10-07T23:17:40.143Z,3.60
2017-10-07T23:20:09.162Z,3.70
2017-10-07T23:22:37.282Z,3.43
2017-10-07T23:25:05.409Z,4.77
2017-10-07T23:27:33.567Z,5.37
2017-10-07T23:30:02.467Z,3.00
2017-10-07T23:32:30.734Z,3.23
2017-10-07T23:34:59.617Z,2.77
2017-10-07T23:37:28.514Z,2.63
2017-10-07T23:39:56.775Z,3.30
2017-10-07T23:42:25.669Z,2.23
2017-10-07T23:44:54.566Z,2.33
2017-10-07T23:47:22.865Z,2.30
2017-10-07T23:49:51.001Z,3.13
2017-10-07T23:52:19.888Z,2.53
2017-10-07T23:54:48.794Z,4.43
2017-10-07T23:57:16.912Z,1.80
2017-10-07T23:59:45.168Z,1.40
